sensor_id;sensor_type;location;lat;lon;timestamp;temperature;humidity
25945;SHT31;13742;49.306;8.636;2022-12-26T00:00:31;10.16;86.06
25945;SHT31;13742;49.306;8.636;2022-12-26T00:01:33;10.13;86.06
25945;SHT31;13742;49.306;8.636;2022-12-26T00:02:31;10.14;86.06
25945;SHT31;13742;49.306;8.636;2022-12-26T00:03:31;10.13;85.60
25945;SHT31;13742;49.306;8.636;2022-12-26T00:04:31;10.10;85.91
25945;SHT31;13742;49.306;8.636;2022-12-26T00:05:35;10.09;86.01
25945;SHT31;13742;49.306;8.636;2022-12-26T00:06:31;10.09;85.81
25945;SHT31;13742;49.306;8.636;2022-12-26T00:07:31;10.06;85.92
25945;SHT31;13742;49.306;8.636;2022-12-26T00:08:31;10.05;86.00
25945;SHT31;13742;49.306;8.636;2022-12-26T00:09:32;10.03;85.99
25945;SHT31;13742;49.306;8.636;2022-12-26T00:10:31;10.03;86.14
25945;SHT31;13742;49.306;8.636;2022-12-26T00:11:31;10.01;86.22
25945;SHT31;13742;49.306;8.636;2022-12-26T00:12:31;9.99;86.32
25945;SHT31;13742;49.306;8.636;2022-12-26T00:13:31;9.98;86.28
25945;SHT31;13742;49.306;8.636;2022-12-26T00:14:31;9.98;86.22
25945;SHT31;13742;49.306;8.636;2022-12-26T00:15:31;9.95;86.21
25945;SHT31;13742;49.306;8.636;2022-12-26T00:16:31;9.96;86.44
25945;SHT31;13742;49.306;8.636;2022-12-26T00:17:31;9.96;86.23
25945;SHT31;13742;49.306;8.636;2022-12-26T00:18:31;9.93;86.22
25945;SHT31;13742;49.306;8.636;2022-12-26T00:19:31;9.93;86.22
25945;SHT31;13742;49.306;8.636;2022-12-26T00:20:31;9.93;86.32
25945;SHT31;13742;49.306;8.636;2022-12-26T00:21:31;9.92;86.34
25945;SHT31;13742;49.306;8.636;2022-12-26T00:22:31;9.92;86.23
25945;SHT31;13742;49.306;8.636;2022-12-26T00:23:32;9.91;86.23
25945;SHT31;13742;49.306;8.636;2022-12-26T00:24:31;9.88;86.26
25945;SHT31;13742;49.306;8.636;2022-12-26T00:25:32;9.89;86.47
25945;SHT31;13742;49.306;8.636;2022-12-26T00:26:32;9.89;86.31
25945;SHT31;13742;49.306;8.636;2022-12-26T00:27:31;9.89;86.39
25945;SHT31;13742;49.306;8.636;2022-12-26T00:28:31;9.89;86.37
25945;SHT31;13742;49.306;8.636;2022-12-26T00:29:31;9.91;86.48
25945;SHT31;13742;49.306;8.636;2022-12-26T00:30:31;9.92;86.48
25945;SHT31;13742;49.306;8.636;2022-12-26T00:31:33;9.91;86.45
25945;SHT31;13742;49.306;8.636;2022-12-26T00:32:31;9.89;86.41
25945;SHT31;13742;49.306;8.636;2022-12-26T00:33:32;9.89;86.57
25945;SHT31;13742;49.306;8.636;2022-12-26T00:34:31;9.91;86.49
25945;SHT31;13742;49.306;8.636;2022-12-26T00:35:31;9.92;86.47
25945;SHT31;13742;49.306;8.636;2022-12-26T00:36:32;9.91;86.50
25945;SHT31;13742;49.306;8.636;2022-12-26T00:37:31;9.93;86.38
25945;SHT31;13742;49.306;8.636;2022-12-26T00:38:31;9.92;86.35
25945;SHT31;13742;49.306;8.636;2022-12-26T00:39:31;9.93;86.40
25945;SHT31;13742;49.306;8.636;2022-12-26T00:40:31;9.95;86.40
25945;SHT31;13742;49.306;8.636;2022-12-26T00:41:31;9.93;86.50
25945;SHT31;13742;49.306;8.636;2022-12-26T00:42:31;9.96;86.49
25945;SHT31;13742;49.306;8.636;2022-12-26T00:43:31;9.98;86.52
25945;SHT31;13742;49.306;8.636;2022-12-26T00:44:31;9.96;86.53
25945;SHT31;13742;49.306;8.636;2022-12-26T00:45:31;9.98;86.51
25945;SHT31;13742;49.306;8.636;2022-12-26T00:46:31;10.01;86.49
25945;SHT31;13742;49.306;8.636;2022-12-26T00:47:31;10.02;86.50
25945;SHT31;13742;49.306;8.636;2022-12-26T00:48:31;10.03;86.28
25945;SHT31;13742;49.306;8.636;2022-12-26T00:49:31;10.05;86.40
25945;SHT31;13742;49.306;8.636;2022-12-26T00:50:31;10.05;86.44
25945;SHT31;13742;49.306;8.636;2022-12-26T00:51:31;10.09;86.27
25945;SHT31;13742;49.306;8.636;2022-12-26T00:52:31;10.05;86.24
25945;SHT31;13742;49.306;8.636;2022-12-26T00:53:31;10.09;86.40
25945;SHT31;13742;49.306;8.636;2022-12-26T00:54:31;10.09;86.39
25945;SHT31;13742;49.306;8.636;2022-12-26T00:55:31;10.12;86.02
25945;SHT31;13742;49.306;8.636;2022-12-26T00:56:31;10.09;86.19
25945;SHT31;13742;49.306;8.636;2022-12-26T00:57:31;10.12;86.05
25945;SHT31;13742;49.306;8.636;2022-12-26T00:58:31;10.10;86.14
25945;SHT31;13742;49.306;8.636;2022-12-26T00:59:31;10.09;86.18
25945;SHT31;13742;49.306;8.636;2022-12-26T01:00:31;10.12;86.02
25945;SHT31;13742;49.306;8.636;2022-12-26T01:01:31;10.08;86.04
25945;SHT31;13742;49.306;8.636;2022-12-26T01:02:36;10.10;86.00
25945;SHT31;13742;49.306;8.636;2022-12-26T01:03:31;10.13;86.27
25945;SHT31;13742;49.306;8.636;2022-12-26T01:04:31;10.13;86.18
25945;SHT31;13742;49.306;8.636;2022-12-26T01:05:31;10.12;86.16
25945;SHT31;13742;49.306;8.636;2022-12-26T01:06:31;10.12;86.16
25945;SHT31;13742;49.306;8.636;2022-12-26T01:07:35;10.09;86.24
25945;SHT31;13742;49.306;8.636;2022-12-26T01:08:31;10.05;86.24
25945;SHT31;13742;49.306;8.636;2022-12-26T01:09:31;10.03;86.32
25945;SHT31;13742;49.306;8.636;2022-12-26T01:10:31;10.01;86.30
25945;SHT31;13742;49.306;8.636;2022-12-26T01:11:36;10.01;86.36
25945;SHT31;13742;49.306;8.636;2022-12-26T01:12:31;10.01;86.44
25945;SHT31;13742;49.306;8.636;2022-12-26T01:13:31;10.01;86.48
25945;SHT31;13742;49.306;8.636;2022-12-26T01:14:31;9.99;86.56
25945;SHT31;13742;49.306;8.636;2022-12-26T01:15:31;9.98;86.58
25945;SHT31;13742;49.306;8.636;2022-12-26T01:16:31;9.95;86.50
25945;SHT31;13742;49.306;8.636;2022-12-26T01:17:31;9.92;86.54
25945;SHT31;13742;49.306;8.636;2022-12-26T01:18:31;9.93;86.65
25945;SHT31;13742;49.306;8.636;2022-12-26T01:19:31;9.96;86.81
25945;SHT31;13742;49.306;8.636;2022-12-26T01:20:31;9.92;86.83
25945;SHT31;13742;49.306;8.636;2022-12-26T01:21:31;9.95;86.74
25945;SHT31;13742;49.306;8.636;2022-12-26T01:22:31;9.93;86.68
25945;SHT31;13742;49.306;8.636;2022-12-26T01:23:31;9.95;86.61
25945;SHT31;13742;49.306;8.636;2022-12-26T01:24:31;9.95;86.67
25945;SHT31;13742;49.306;8.636;2022-12-26T01:25:31;9.93;86.72
25945;SHT31;13742;49.306;8.636;2022-12-26T01:26:31;9.95;86.81
25945;SHT31;13742;49.306;8.636;2022-12-26T01:27:31;9.96;86.77
25945;SHT31;13742;49.306;8.636;2022-12-26T01:28:31;9.95;86.91
25945;SHT31;13742;49.306;8.636;2022-12-26T01:29:31;9.95;86.88
25945;SHT31;13742;49.306;8.636;2022-12-26T01:30:31;9.95;86.84
25945;SHT31;13742;49.306;8.636;2022-12-26T01:31:31;9.95;86.74
25945;SHT31;13742;49.306;8.636;2022-12-26T01:32:31;9.98;86.79
25945;SHT31;13742;49.306;8.636;2022-12-26T01:33:31;10.01;86.69
25945;SHT31;13742;49.306;8.636;2022-12-26T01:34:31;9.99;86.68
25945;SHT31;13742;49.306;8.636;2022-12-26T01:35:31;10.01;86.69
25945;SHT31;13742;49.306;8.636;2022-12-26T01:36:31;10.02;86.64
25945;SHT31;13742;49.306;8.636;2022-12-26T01:37:31;10.03;86.61
25945;SHT31;13742;49.306;8.636;2022-12-26T01:38:31;10.05;86.46
25945;SHT31;13742;49.306;8.636;2022-12-26T01:39:31;10.08;86.27
25945;SHT31;13742;49.306;8.636;2022-12-26T01:40:31;10.09;86.32
25945;SHT31;13742;49.306;8.636;2022-12-26T01:41:32;10.09;86.36
25945;SHT31;13742;49.306;8.636;2022-12-26T01:42:36;10.09;86.38
25945;SHT31;13742;49.306;8.636;2022-12-26T01:45:31;10.08;86.37
25945;SHT31;13742;49.306;8.636;2022-12-26T01:46:40;10.10;86.38
25945;SHT31;13742;49.306;8.636;2022-12-26T01:47:37;10.10;86.37
25945;SHT31;13742;49.306;8.636;2022-12-26T01:48:33;10.09;86.35
25945;SHT31;13742;49.306;8.636;2022-12-26T01:49:37;10.10;86.28
25945;SHT31;13742;49.306;8.636;2022-12-26T01:51:36;10.09;86.32
25945;SHT31;13742;49.306;8.636;2022-12-26T01:52:37;10.10;86.26
25945;SHT31;13742;49.306;8.636;2022-12-26T01:53:42;10.12;86.27
25945;SHT31;13742;49.306;8.636;2022-12-26T01:54:34;10.12;86.41
25945;SHT31;13742;49.306;8.636;2022-12-26T01:55:32;10.10;86.40
25945;SHT31;13742;49.306;8.636;2022-12-26T01:56:35;10.10;86.40
25945;SHT31;13742;49.306;8.636;2022-12-26T01:57:39;10.12;86.36
25945;SHT31;13742;49.306;8.636;2022-12-26T01:58:35;10.12;86.34
25945;SHT31;13742;49.306;8.636;2022-12-26T01:59:32;10.10;86.30
25945;SHT31;13742;49.306;8.636;2022-12-26T02:00:31;10.13;86.35
25945;SHT31;13742;49.306;8.636;2022-12-26T02:01:32;10.12;86.24
25945;SHT31;13742;49.306;8.636;2022-12-26T02:02:46;10.12;86.30
25945;SHT31;13742;49.306;8.636;2022-12-26T02:03:38;10.12;86.25
25945;SHT31;13742;49.306;8.636;2022-12-26T02:04:42;10.13;86.30
25945;SHT31;13742;49.306;8.636;2022-12-26T02:05:33;10.12;86.26
25945;SHT31;13742;49.306;8.636;2022-12-26T02:06:32;10.10;86.17
25945;SHT31;13742;49.306;8.636;2022-12-26T02:07:33;10.14;86.18
25945;SHT31;13742;49.306;8.636;2022-12-26T02:08:33;10.14;86.16
25945;SHT31;13742;49.306;8.636;2022-12-26T02:09:31;10.13;86.08
25945;SHT31;13742;49.306;8.636;2022-12-26T02:10:40;10.13;86.06
25945;SHT31;13742;49.306;8.636;2022-12-26T02:11:35;10.16;86.01
25945;SHT31;13742;49.306;8.636;2022-12-26T02:12:34;10.14;86.04
25945;SHT31;13742;49.306;8.636;2022-12-26T02:13:34;10.17;86.01
25945;SHT31;13742;49.306;8.636;2022-12-26T02:14:31;10.16;85.94
25945;SHT31;13742;49.306;8.636;2022-12-26T02:15:31;10.19;85.97
25945;SHT31;13742;49.306;8.636;2022-12-26T02:16:32;10.22;85.65
25945;SHT31;13742;49.306;8.636;2022-12-26T02:17:31;10.17;85.75
25945;SHT31;13742;49.306;8.636;2022-12-26T02:18:31;10.17;85.89
25945;SHT31;13742;49.306;8.636;2022-12-26T02:20:40;10.17;85.81
25945;SHT31;13742;49.306;8.636;2022-12-26T02:25:03;10.22;85.65
25945;SHT31;13742;49.306;8.636;2022-12-26T02:25:51;10.27;85.63
25945;SHT31;13742;49.306;8.636;2022-12-26T02:30:36;10.26;85.47
25945;SHT31;13742;49.306;8.636;2022-12-26T02:31:39;10.23;85.56
25945;SHT31;13742;49.306;8.636;2022-12-26T02:34:42;10.22;85.58
25945;SHT31;13742;49.306;8.636;2022-12-26T02:39:55;10.19;85.82
25945;SHT31;13742;49.306;8.636;2022-12-26T02:40:42;10.19;85.77
25945;SHT31;13742;49.306;8.636;2022-12-26T02:43:38;10.16;85.89
25945;SHT31;13742;49.306;8.636;2022-12-26T02:45:43;10.13;85.93
25945;SHT31;13742;49.306;8.636;2022-12-26T02:46:50;10.12;86.02
25945;SHT31;13742;49.306;8.636;2022-12-26T02:50:50;10.09;86.00
25945;SHT31;13742;49.306;8.636;2022-12-26T02:51:49;10.08;86.03
25945;SHT31;13742;49.306;8.636;2022-12-26T02:53:50;10.06;86.15
25945;SHT31;13742;49.306;8.636;2022-12-26T02:54:59;10.05;86.12
25945;SHT31;13742;49.306;8.636;2022-12-26T02:55:38;10.05;86.14
25945;SHT31;13742;49.306;8.636;2022-12-26T02:56:41;10.03;86.14
25945;SHT31;13742;49.306;8.636;2022-12-26T02:57:41;10.02;86.13
25945;SHT31;13742;49.306;8.636;2022-12-26T02:58:43;10.02;86.23
25945;SHT31;13742;49.306;8.636;2022-12-26T03:00:37;10.01;86.45
25945;SHT31;13742;49.306;8.636;2022-12-26T03:01:40;10.01;86.31
25945;SHT31;13742;49.306;8.636;2022-12-26T03:02:39;9.99;86.41
25945;SHT31;13742;49.306;8.636;2022-12-26T03:03:38;10.01;86.43
25945;SHT31;13742;49.306;8.636;2022-12-26T03:04:37;9.99;86.39
25945;SHT31;13742;49.306;8.636;2022-12-26T03:05:43;9.96;86.34
25945;SHT31;13742;49.306;8.636;2022-12-26T03:06:38;9.96;86.37
25945;SHT31;13742;49.306;8.636;2022-12-26T03:07:38;9.96;86.43
25945;SHT31;13742;49.306;8.636;2022-12-26T03:08:43;9.95;86.39
25945;SHT31;13742;49.306;8.636;2022-12-26T03:09:36;9.95;86.51
25945;SHT31;13742;49.306;8.636;2022-12-26T03:10:36;9.95;86.45
25945;SHT31;13742;49.306;8.636;2022-12-26T03:11:39;9.93;86.69
25945;SHT31;13742;49.306;8.636;2022-12-26T03:12:44;9.89;86.54
25945;SHT31;13742;49.306;8.636;2022-12-26T03:13:33;9.88;86.57
25945;SHT31;13742;49.306;8.636;2022-12-26T03:14:37;9.86;86.59
25945;SHT31;13742;49.306;8.636;2022-12-26T03:15:53;9.82;86.60
25945;SHT31;13742;49.306;8.636;2022-12-26T03:16:36;9.84;86.60
25945;SHT31;13742;49.306;8.636;2022-12-26T03:17:42;9.84;86.69
25945;SHT31;13742;49.306;8.636;2022-12-26T03:18:33;9.81;86.69
25945;SHT31;13742;49.306;8.636;2022-12-26T03:19:32;9.81;86.69
25945;SHT31;13742;49.306;8.636;2022-12-26T03:20:35;9.80;86.72
25945;SHT31;13742;49.306;8.636;2022-12-26T03:21:36;9.80;86.87
25945;SHT31;13742;49.306;8.636;2022-12-26T03:22:38;9.81;86.89
25945;SHT31;13742;49.306;8.636;2022-12-26T03:23:31;9.78;87.04
25945;SHT31;13742;49.306;8.636;2022-12-26T03:24:46;9.76;87.01
25945;SHT31;13742;49.306;8.636;2022-12-26T03:26:40;9.78;87.11
25945;SHT31;13742;49.306;8.636;2022-12-26T03:27:32;9.78;86.93
25945;SHT31;13742;49.306;8.636;2022-12-26T03:28:31;9.78;87.03
25945;SHT31;13742;49.306;8.636;2022-12-26T03:29:36;9.81;87.11
25945;SHT31;13742;49.306;8.636;2022-12-26T03:30:36;9.80;86.93
25945;SHT31;13742;49.306;8.636;2022-12-26T03:31:31;9.75;86.95
25945;SHT31;13742;49.306;8.636;2022-12-26T03:32:41;9.81;87.04
25945;SHT31;13742;49.306;8.636;2022-12-26T03:33:39;9.76;86.94
25945;SHT31;13742;49.306;8.636;2022-12-26T03:34:32;9.75;86.92
25945;SHT31;13742;49.306;8.636;2022-12-26T03:35:32;9.74;86.95
25945;SHT31;13742;49.306;8.636;2022-12-26T03:37:42;9.72;86.99
25945;SHT31;13742;49.306;8.636;2022-12-26T03:38:40;9.74;87.07
25945;SHT31;13742;49.306;8.636;2022-12-26T03:39:44;9.72;87.04
25945;SHT31;13742;49.306;8.636;2022-12-26T03:40:49;9.72;87.01
25945;SHT31;13742;49.306;8.636;2022-12-26T03:41:43;9.71;86.97
25945;SHT31;13742;49.306;8.636;2022-12-26T03:42:45;9.74;87.07
25945;SHT31;13742;49.306;8.636;2022-12-26T03:43:57;9.69;86.98
25945;SHT31;13742;49.306;8.636;2022-12-26T03:45:53;9.72;86.99
25945;SHT31;13742;49.306;8.636;2022-12-26T03:47:46;9.69;86.96
25945;SHT31;13742;49.306;8.636;2022-12-26T03:49:44;9.68;87.04
25945;SHT31;13742;49.306;8.636;2022-12-26T03:50:44;9.72;87.14
25945;SHT31;13742;49.306;8.636;2022-12-26T03:51:43;9.72;87.13
25945;SHT31;13742;49.306;8.636;2022-12-26T03:53:46;9.74;87.10
25945;SHT31;13742;49.306;8.636;2022-12-26T03:54:46;9.75;87.01
25945;SHT31;13742;49.306;8.636;2022-12-26T03:55:44;9.75;86.96
25945;SHT31;13742;49.306;8.636;2022-12-26T03:56:44;9.75;86.98
25945;SHT31;13742;49.306;8.636;2022-12-26T03:57:51;9.76;86.89
25945;SHT31;13742;49.306;8.636;2022-12-26T03:58:44;9.75;86.98
25945;SHT31;13742;49.306;8.636;2022-12-26T03:59:42;9.74;87.00
25945;SHT31;13742;49.306;8.636;2022-12-26T04:00:37;9.76;87.09
25945;SHT31;13742;49.306;8.636;2022-12-26T04:01:37;9.74;87.10
25945;SHT31;13742;49.306;8.636;2022-12-26T04:02:37;9.76;87.05
25945;SHT31;13742;49.306;8.636;2022-12-26T04:03:37;9.76;87.09
25945;SHT31;13742;49.306;8.636;2022-12-26T04:04:38;9.80;87.01
25945;SHT31;13742;49.306;8.636;2022-12-26T04:05:37;9.80;86.89
25945;SHT31;13742;49.306;8.636;2022-12-26T04:06:45;9.78;86.96
25945;SHT31;13742;49.306;8.636;2022-12-26T04:07:40;9.78;87.09
25945;SHT31;13742;49.306;8.636;2022-12-26T04:08:58;9.75;87.06
25945;SHT31;13742;49.306;8.636;2022-12-26T04:09:44;9.75;87.08
25945;SHT31;13742;49.306;8.636;2022-12-26T04:10:39;9.78;87.05
25945;SHT31;13742;49.306;8.636;2022-12-26T04:11:38;9.76;87.16
25945;SHT31;13742;49.306;8.636;2022-12-26T04:12:36;9.76;87.18
25945;SHT31;13742;49.306;8.636;2022-12-26T04:13:45;9.80;87.25
25945;SHT31;13742;49.306;8.636;2022-12-26T04:14:52;9.78;87.42
25945;SHT31;13742;49.306;8.636;2022-12-26T04:15:44;9.80;87.42
25945;SHT31;13742;49.306;8.636;2022-12-26T04:16:40;9.78;87.33
25945;SHT31;13742;49.306;8.636;2022-12-26T04:17:44;9.80;87.45
25945;SHT31;13742;49.306;8.636;2022-12-26T04:21:45;9.85;87.31
25945;SHT31;13742;49.306;8.636;2022-12-26T04:23:51;9.82;87.34
25945;SHT31;13742;49.306;8.636;2022-12-26T04:24:41;9.84;87.32
25945;SHT31;13742;49.306;8.636;2022-12-26T04:25:46;9.84;87.39
25945;SHT31;13742;49.306;8.636;2022-12-26T04:26:43;9.81;87.28
25945;SHT31;13742;49.306;8.636;2022-12-26T04:27:36;9.84;87.45
25945;SHT31;13742;49.306;8.636;2022-12-26T04:28:36;9.80;87.36
25945;SHT31;13742;49.306;8.636;2022-12-26T04:29:36;9.81;87.40
25945;SHT31;13742;49.306;8.636;2022-12-26T04:30:38;9.76;87.45
25945;SHT31;13742;49.306;8.636;2022-12-26T04:31:46;9.81;87.70
25945;SHT31;13742;49.306;8.636;2022-12-26T04:32:43;9.81;87.64
25945;SHT31;13742;49.306;8.636;2022-12-26T04:33:42;9.80;87.63
25945;SHT31;13742;49.306;8.636;2022-12-26T04:34:44;9.80;87.63
25945;SHT31;13742;49.306;8.636;2022-12-26T04:35:46;9.82;87.74
25945;SHT31;13742;49.306;8.636;2022-12-26T04:36:45;9.81;87.84
25945;SHT31;13742;49.306;8.636;2022-12-26T04:37:39;9.82;87.68
25945;SHT31;13742;49.306;8.636;2022-12-26T04:38:43;9.78;87.77
25945;SHT31;13742;49.306;8.636;2022-12-26T04:39:37;9.82;87.88
25945;SHT31;13742;49.306;8.636;2022-12-26T04:40:38;9.80;87.83
25945;SHT31;13742;49.306;8.636;2022-12-26T04:41:37;9.78;87.77
25945;SHT31;13742;49.306;8.636;2022-12-26T04:42:37;9.78;87.97
25945;SHT31;13742;49.306;8.636;2022-12-26T04:43:36;9.80;87.85
25945;SHT31;13742;49.306;8.636;2022-12-26T04:44:32;9.82;87.95
25945;SHT31;13742;49.306;8.636;2022-12-26T04:45:30;9.80;87.89
25945;SHT31;13742;49.306;8.636;2022-12-26T04:46:32;9.82;88.13
25945;SHT31;13742;49.306;8.636;2022-12-26T04:47:31;9.84;88.00
25945;SHT31;13742;49.306;8.636;2022-12-26T04:48:42;9.82;88.00
25945;SHT31;13742;49.306;8.636;2022-12-26T04:49:41;9.81;87.84
25945;SHT31;13742;49.306;8.636;2022-12-26T04:50:30;9.78;87.80
25945;SHT31;13742;49.306;8.636;2022-12-26T04:51:30;9.76;88.07
25945;SHT31;13742;49.306;8.636;2022-12-26T04:52:36;9.76;88.40
25945;SHT31;13742;49.306;8.636;2022-12-26T04:53:30;9.75;88.39
25945;SHT31;13742;49.306;8.636;2022-12-26T04:54:31;9.71;88.49
25945;SHT31;13742;49.306;8.636;2022-12-26T04:55:31;9.72;88.34
25945;SHT31;13742;49.306;8.636;2022-12-26T04:56:31;9.71;88.23
25945;SHT31;13742;49.306;8.636;2022-12-26T04:57:30;9.72;88.34
25945;SHT31;13742;49.306;8.636;2022-12-26T04:58:30;9.72;88.28
25945;SHT31;13742;49.306;8.636;2022-12-26T04:59:31;9.69;88.19
25945;SHT31;13742;49.306;8.636;2022-12-26T05:00:30;9.71;88.72
25945;SHT31;13742;49.306;8.636;2022-12-26T05:01:36;9.71;88.45
25945;SHT31;13742;49.306;8.636;2022-12-26T05:02:36;9.74;88.47
25945;SHT31;13742;49.306;8.636;2022-12-26T05:03:36;9.71;88.30
25945;SHT31;13742;49.306;8.636;2022-12-26T05:04:36;9.69;88.41
25945;SHT31;13742;49.306;8.636;2022-12-26T05:05:41;9.74;88.62
25945;SHT31;13742;49.306;8.636;2022-12-26T05:06:36;9.74;88.92
25945;SHT31;13742;49.306;8.636;2022-12-26T05:07:36;9.74;88.82
25945;SHT31;13742;49.306;8.636;2022-12-26T05:08:38;9.76;88.70
25945;SHT31;13742;49.306;8.636;2022-12-26T05:09:33;9.74;88.88
25945;SHT31;13742;49.306;8.636;2022-12-26T05:10:30;9.72;88.70
25945;SHT31;13742;49.306;8.636;2022-12-26T05:11:33;9.74;88.81
25945;SHT31;13742;49.306;8.636;2022-12-26T05:12:30;9.72;88.64
25945;SHT31;13742;49.306;8.636;2022-12-26T05:13:30;9.75;89.08
25945;SHT31;13742;49.306;8.636;2022-12-26T05:14:31;9.75;89.01
25945;SHT31;13742;49.306;8.636;2022-12-26T05:15:45;9.76;89.07
25945;SHT31;13742;49.306;8.636;2022-12-26T05:16:35;9.74;88.87
25945;SHT31;13742;49.306;8.636;2022-12-26T05:17:36;9.78;89.25
25945;SHT31;13742;49.306;8.636;2022-12-26T05:18:35;9.76;88.97
25945;SHT31;13742;49.306;8.636;2022-12-26T05:19:36;9.80;89.12
25945;SHT31;13742;49.306;8.636;2022-12-26T05:20:38;9.78;88.94
25945;SHT31;13742;49.306;8.636;2022-12-26T05:21:36;9.76;88.99
25945;SHT31;13742;49.306;8.636;2022-12-26T05:22:38;9.81;89.23
25945;SHT31;13742;49.306;8.636;2022-12-26T05:23:35;9.80;88.95
25945;SHT31;13742;49.306;8.636;2022-12-26T05:24:38;9.76;88.96
25945;SHT31;13742;49.306;8.636;2022-12-26T05:25:39;9.78;88.88
25945;SHT31;13742;49.306;8.636;2022-12-26T05:26:36;9.76;88.97
25945;SHT31;13742;49.306;8.636;2022-12-26T05:27:38;9.78;88.99
25945;SHT31;13742;49.306;8.636;2022-12-26T05:28:35;9.78;89.10
25945;SHT31;13742;49.306;8.636;2022-12-26T05:29:30;9.80;89.11
25945;SHT31;13742;49.306;8.636;2022-12-26T05:30:30;9.80;89.13
25945;SHT31;13742;49.306;8.636;2022-12-26T05:31:31;9.78;89.17
25945;SHT31;13742;49.306;8.636;2022-12-26T05:32:35;9.81;89.21
25945;SHT31;13742;49.306;8.636;2022-12-26T05:33:36;9.84;89.20
25945;SHT31;13742;49.306;8.636;2022-12-26T05:34:30;9.82;89.17
25945;SHT31;13742;49.306;8.636;2022-12-26T05:35:31;9.84;89.14
25945;SHT31;13742;49.306;8.636;2022-12-26T05:36:35;9.85;89.16
25945;SHT31;13742;49.306;8.636;2022-12-26T05:37:30;9.84;89.30
25945;SHT31;13742;49.306;8.636;2022-12-26T05:38:30;9.85;89.28
25945;SHT31;13742;49.306;8.636;2022-12-26T05:39:30;9.85;89.01
25945;SHT31;13742;49.306;8.636;2022-12-26T05:40:31;9.80;89.05
25945;SHT31;13742;49.306;8.636;2022-12-26T05:41:30;9.81;88.95
25945;SHT31;13742;49.306;8.636;2022-12-26T05:42:30;9.81;89.05
25945;SHT31;13742;49.306;8.636;2022-12-26T05:43:31;9.80;89.03
25945;SHT31;13742;49.306;8.636;2022-12-26T05:44:30;9.82;89.23
25945;SHT31;13742;49.306;8.636;2022-12-26T05:45:30;9.81;89.11
25945;SHT31;13742;49.306;8.636;2022-12-26T05:46:31;9.80;89.02
25945;SHT31;13742;49.306;8.636;2022-12-26T05:47:30;9.80;89.18
25945;SHT31;13742;49.306;8.636;2022-12-26T05:48:30;9.82;89.38
25945;SHT31;13742;49.306;8.636;2022-12-26T05:49:30;9.81;89.21
25945;SHT31;13742;49.306;8.636;2022-12-26T05:50:30;9.82;89.21
25945;SHT31;13742;49.306;8.636;2022-12-26T05:51:31;9.81;89.11
25945;SHT31;13742;49.306;8.636;2022-12-26T05:52:30;9.84;89.18
25945;SHT31;13742;49.306;8.636;2022-12-26T05:53:31;9.84;89.07
25945;SHT31;13742;49.306;8.636;2022-12-26T05:54:30;9.88;89.08
25945;SHT31;13742;49.306;8.636;2022-12-26T05:55:30;9.89;89.03
25945;SHT31;13742;49.306;8.636;2022-12-26T05:56:30;9.89;88.86
25945;SHT31;13742;49.306;8.636;2022-12-26T05:57:31;9.91;88.85
25945;SHT31;13742;49.306;8.636;2022-12-26T05:58:30;9.92;88.72
25945;SHT31;13742;49.306;8.636;2022-12-26T05:59:30;9.95;88.54
25945;SHT31;13742;49.306;8.636;2022-12-26T06:00:31;9.96;88.55
25945;SHT31;13742;49.306;8.636;2022-12-26T06:01:30;9.99;88.37
25945;SHT31;13742;49.306;8.636;2022-12-26T06:02:30;10.01;88.29
25945;SHT31;13742;49.306;8.636;2022-12-26T06:03:31;10.09;88.24
25945;SHT31;13742;49.306;8.636;2022-12-26T06:04:32;10.06;88.12
25945;SHT31;13742;49.306;8.636;2022-12-26T06:05:30;10.09;88.14
25945;SHT31;13742;49.306;8.636;2022-12-26T06:06:31;10.12;88.02
25945;SHT31;13742;49.306;8.636;2022-12-26T06:07:30;10.14;88.01
25945;SHT31;13742;49.306;8.636;2022-12-26T06:08:31;10.12;87.97
25945;SHT31;13742;49.306;8.636;2022-12-26T06:09:30;10.14;87.99
25945;SHT31;13742;49.306;8.636;2022-12-26T06:10:30;10.17;87.98
25945;SHT31;13742;49.306;8.636;2022-12-26T06:11:30;10.19;87.79
25945;SHT31;13742;49.306;8.636;2022-12-26T06:12:31;10.20;87.83
25945;SHT31;13742;49.306;8.636;2022-12-26T06:13:30;10.22;87.76
25945;SHT31;13742;49.306;8.636;2022-12-26T06:14:30;10.24;87.93
25945;SHT31;13742;49.306;8.636;2022-12-26T06:15:30;10.27;87.82
25945;SHT31;13742;49.306;8.636;2022-12-26T06:16:30;10.27;87.85
25945;SHT31;13742;49.306;8.636;2022-12-26T06:17:30;10.30;87.87
25945;SHT31;13742;49.306;8.636;2022-12-26T06:18:30;10.27;87.66
25945;SHT31;13742;49.306;8.636;2022-12-26T06:19:30;10.36;87.78
25945;SHT31;13742;49.306;8.636;2022-12-26T06:20:31;10.39;87.36
25945;SHT31;13742;49.306;8.636;2022-12-26T06:21:30;10.37;87.36
25945;SHT31;13742;49.306;8.636;2022-12-26T06:22:30;10.40;87.46
25945;SHT31;13742;49.306;8.636;2022-12-26T06:23:30;10.39;87.41
25945;SHT31;13742;49.306;8.636;2022-12-26T06:24:30;10.41;87.38
25945;SHT31;13742;49.306;8.636;2022-12-26T06:25:31;10.41;87.19
25945;SHT31;13742;49.306;8.636;2022-12-26T06:26:30;10.45;87.29
25945;SHT31;13742;49.306;8.636;2022-12-26T06:27:30;10.47;87.21
25945;SHT31;13742;49.306;8.636;2022-12-26T06:28:32;10.51;87.12
25945;SHT31;13742;49.306;8.636;2022-12-26T06:29:30;10.51;87.14
25945;SHT31;13742;49.306;8.636;2022-12-26T06:30:30;10.50;87.10
25945;SHT31;13742;49.306;8.636;2022-12-26T06:31:31;10.50;87.08
25945;SHT31;13742;49.306;8.636;2022-12-26T06:32:30;10.50;87.14
25945;SHT31;13742;49.306;8.636;2022-12-26T06:33:30;10.51;87.08
25945;SHT31;13742;49.306;8.636;2022-12-26T06:34:31;10.54;87.04
25945;SHT31;13742;49.306;8.636;2022-12-26T06:35:32;10.54;86.98
25945;SHT31;13742;49.306;8.636;2022-12-26T06:36:30;10.53;87.08
25945;SHT31;13742;49.306;8.636;2022-12-26T06:37:32;10.57;86.99
25945;SHT31;13742;49.306;8.636;2022-12-26T06:38:30;10.57;87.21
25945;SHT31;13742;49.306;8.636;2022-12-26T06:39:30;10.61;86.97
25945;SHT31;13742;49.306;8.636;2022-12-26T06:40:30;10.61;87.08
25945;SHT31;13742;49.306;8.636;2022-12-26T06:41:30;10.63;86.92
25945;SHT31;13742;49.306;8.636;2022-12-26T06:42:30;10.63;86.97
25945;SHT31;13742;49.306;8.636;2022-12-26T06:43:30;10.63;86.97
25945;SHT31;13742;49.306;8.636;2022-12-26T06:44:30;10.64;86.99
25945;SHT31;13742;49.306;8.636;2022-12-26T06:45:30;10.63;86.97
25945;SHT31;13742;49.306;8.636;2022-12-26T06:46:30;10.60;86.83
25945;SHT31;13742;49.306;8.636;2022-12-26T06:47:30;10.63;86.98
25945;SHT31;13742;49.306;8.636;2022-12-26T06:48:31;10.61;87.04
25945;SHT31;13742;49.306;8.636;2022-12-26T06:49:30;10.64;86.89
25945;SHT31;13742;49.306;8.636;2022-12-26T06:50:30;10.63;86.98
25945;SHT31;13742;49.306;8.636;2022-12-26T06:51:31;10.63;87.03
25945;SHT31;13742;49.306;8.636;2022-12-26T06:52:30;10.68;87.04
25945;SHT31;13742;49.306;8.636;2022-12-26T06:53:32;10.68;87.03
25945;SHT31;13742;49.306;8.636;2022-12-26T06:54:30;10.67;87.26
25945;SHT31;13742;49.306;8.636;2022-12-26T06:55:30;10.67;87.24
25945;SHT31;13742;49.306;8.636;2022-12-26T06:56:31;10.71;87.32
25945;SHT31;13742;49.306;8.636;2022-12-26T06:57:30;10.71;87.42